sensor_id;sensor_type;location;lat;lon;timestamp;temperature;humidity
16966;DHT22;8599;47.852;12.070;2023-02-05T00:00:27;1.50;99.90
16966;DHT22;8599;47.852;12.070;2023-02-05T00:02:54;1.50;99.90
16966;DHT22;8599;47.852;12.070;2023-02-05T00:05:20;1.40;99.90
16966;DHT22;8599;47.852;12.070;2023-02-05T00:07:47;1.50;99.90
16966;DHT22;8599;47.852;12.070;2023-02-05T00:10:16;1.50;99.90
16966;DHT22;8599;47.852;12.070;2023-02-05T00:12:43;1.50;99.90
16966;DHT22;8599;47.852;12.070;2023-02-05T00:15:10;1.50;99.90
16966;DHT22;8599;47.852;12.070;2023-02-05T00:17:36;1.50;99.90
16966;DHT22;8599;47.852;12.070;2023-02-05T00:20:04;1.50;99.90
16966;DHT22;8599;47.852;12.070;2023-02-05T00:22:31;1.50;99.90
16966;DHT22;8599;47.852;12.070;2023-02-05T00:24:58;1.50;99.90
16966;DHT22;8599;47.852;12.070;2023-02-05T00:27:26;1.60;99.90
16966;DHT22;8599;47.852;12.070;2023-02-05T00:29:53;1.50;99.90
16966;DHT22;8599;47.852;12.070;2023-02-05T00:32:20;1.50;99.90
16966;DHT22;8599;47.852;12.070;2023-02-05T00:34:47;1.50;99.90
16966;DHT22;8599;47.852;12.070;2023-02-05T00:37:14;1.50;99.90
16966;DHT22;8599;47.852;12.070;2023-02-05T00:39:40;1.50;99.90
16966;DHT22;8599;47.852;12.070;2023-02-05T00:42:07;1.40;99.90
16966;DHT22;8599;47.852;12.070;2023-02-05T00:44:35;1.40;99.90
16966;DHT22;8599;47.852;12.070;2023-02-05T00:47:02;1.40;99.90
16966;DHT22;8599;47.852;12.070;2023-02-05T00:49:29;1.30;99.90
16966;DHT22;8599;47.852;12.070;2023-02-05T00:51:55;1.30;99.90
16966;DHT22;8599;47.852;12.070;2023-02-05T00:54:22;1.30;99.90
16966;DHT22;8599;47.852;12.070;2023-02-05T00:56:49;1.20;99.90
16966;DHT22;8599;47.852;12.070;2023-02-05T00:59:16;1.20;99.90
16966;DHT22;8599;47.852;12.070;2023-02-05T01:01:44;1.20;99.90
16966;DHT22;8599;47.852;12.070;2023-02-05T01:04:11;1.20;99.90
16966;DHT22;8599;47.852;12.070;2023-02-05T01:06:37;1.20;99.90
16966;DHT22;8599;47.852;12.070;2023-02-05T01:09:04;1.20;99.90
16966;DHT22;8599;47.852;12.070;2023-02-05T01:11:31;1.20;99.90
16966;DHT22;8599;47.852;12.070;2023-02-05T01:13:58;1.20;99.90
16966;DHT22;8599;47.852;12.070;2023-02-05T01:16:25;1.20;99.90
16966;DHT22;8599;47.852;12.070;2023-02-05T01:18:53;1.30;99.90
16966;DHT22;8599;47.852;12.070;2023-02-05T01:21:21;1.30;99.90
16966;DHT22;8599;47.852;12.070;2023-02-05T01:23:49;1.30;99.90
16966;DHT22;8599;47.852;12.070;2023-02-05T01:26:16;1.30;99.90
16966;DHT22;8599;47.852;12.070;2023-02-05T01:28:43;1.30;99.90
16966;DHT22;8599;47.852;12.070;2023-02-05T01:31:10;1.30;99.90
16966;DHT22;8599;47.852;12.070;2023-02-05T01:33:37;1.20;99.90
16966;DHT22;8599;47.852;12.070;2023-02-05T01:36:05;1.30;99.90
16966;DHT22;8599;47.852;12.070;2023-02-05T01:38:32;1.30;99.90
16966;DHT22;8599;47.852;12.070;2023-02-05T01:40:59;1.30;99.90
16966;DHT22;8599;47.852;12.070;2023-02-05T01:43:26;1.30;99.90
16966;DHT22;8599;47.852;12.070;2023-02-05T01:46:18;1.20;99.90
16966;DHT22;8599;47.852;12.070;2023-02-05T01:48:49;1.10;99.90
16966;DHT22;8599;47.852;12.070;2023-02-05T01:51:18;0.90;99.90
16966;DHT22;8599;47.852;12.070;2023-02-05T01:53:47;0.90;99.90
16966;DHT22;8599;47.852;12.070;2023-02-05T01:56:18;0.90;99.90
16966;DHT22;8599;47.852;12.070;2023-02-05T01:58:48;0.80;99.90
16966;DHT22;8599;47.852;12.070;2023-02-05T02:01:16;0.90;99.90
16966;DHT22;8599;47.852;12.070;2023-02-05T02:03:43;1.00;99.90
16966;DHT22;8599;47.852;12.070;2023-02-05T02:06:10;1.00;99.90
16966;DHT22;8599;47.852;12.070;2023-02-05T02:08:39;1.00;99.90
16966;DHT22;8599;47.852;12.070;2023-02-05T02:11:07;0.90;99.90
16966;DHT22;8599;47.852;12.070;2023-02-05T02:13:36;0.80;99.90
16966;DHT22;8599;47.852;12.070;2023-02-05T02:16:05;0.90;99.90
16966;DHT22;8599;47.852;12.070;2023-02-05T02:18:33;0.70;99.90
16966;DHT22;8599;47.852;12.070;2023-02-05T02:21:24;0.60;99.90
16966;DHT22;8599;47.852;12.070;2023-02-05T02:27:27;0.60;99.90
16966;DHT22;8599;47.852;12.070;2023-02-05T02:29:56;0.60;99.90
16966;DHT22;8599;47.852;12.070;2023-02-05T02:32:29;0.60;99.90
16966;DHT22;8599;47.852;12.070;2023-02-05T02:35:00;0.70;99.90
16966;DHT22;8599;47.852;12.070;2023-02-05T02:37:33;0.70;99.90
16966;DHT22;8599;47.852;12.070;2023-02-05T02:40:13;0.80;99.90
16966;DHT22;8599;47.852;12.070;2023-02-05T02:42:46;0.80;99.90
16966;DHT22;8599;47.852;12.070;2023-02-05T02:45:16;0.90;99.90
16966;DHT22;8599;47.852;12.070;2023-02-05T02:47:47;0.70;99.90
16966;DHT22;8599;47.852;12.070;2023-02-05T02:50:19;0.80;99.90
16966;DHT22;8599;47.852;12.070;2023-02-05T02:52:49;0.90;99.90
16966;DHT22;8599;47.852;12.070;2023-02-05T02:55:19;0.90;99.90
16966;DHT22;8599;47.852;12.070;2023-02-05T02:57:50;0.90;99.90
16966;DHT22;8599;47.852;12.070;2023-02-05T03:00:21;0.90;99.90
16966;DHT22;8599;47.852;12.070;2023-02-05T03:02:52;0.90;99.90
16966;DHT22;8599;47.852;12.070;2023-02-05T03:05:22;1.00;99.90
16966;DHT22;8599;47.852;12.070;2023-02-05T03:07:51;1.00;99.90
16966;DHT22;8599;47.852;12.070;2023-02-05T03:10:23;1.10;99.90
16966;DHT22;8599;47.852;12.070;2023-02-05T03:12:54;1.10;99.90
16966;DHT22;8599;47.852;12.070;2023-02-05T03:15:21;1.20;99.90
16966;DHT22;8599;47.852;12.070;2023-02-05T03:17:49;1.10;99.90
16966;DHT22;8599;47.852;12.070;2023-02-05T03:20:21;1.10;99.90
16966;DHT22;8599;47.852;12.070;2023-02-05T03:22:49;1.10;99.90
16966;DHT22;8599;47.852;12.070;2023-02-05T03:25:19;1.10;99.90
16966;DHT22;8599;47.852;12.070;2023-02-05T03:27:46;1.00;99.90
16966;DHT22;8599;47.852;12.070;2023-02-05T03:30:15;1.10;99.90
16966;DHT22;8599;47.852;12.070;2023-02-05T03:32:52;1.10;99.90
16966;DHT22;8599;47.852;12.070;2023-02-05T03:35:27;1.10;99.90
16966;DHT22;8599;47.852;12.070;2023-02-05T03:38:07;1.00;99.90
16966;DHT22;8599;47.852;12.070;2023-02-05T03:40:41;1.00;99.90
16966;DHT22;8599;47.852;12.070;2023-02-05T03:43:11;1.00;99.90
16966;DHT22;8599;47.852;12.070;2023-02-05T03:45:47;0.90;99.90
16966;DHT22;8599;47.852;12.070;2023-02-05T03:48:22;0.90;99.90
16966;DHT22;8599;47.852;12.070;2023-02-05T03:50:58;0.90;99.90
16966;DHT22;8599;47.852;12.070;2023-02-05T03:53:32;0.90;99.90
16966;DHT22;8599;47.852;12.070;2023-02-05T03:56:04;0.90;99.90
16966;DHT22;8599;47.852;12.070;2023-02-05T03:58:35;0.90;99.90
16966;DHT22;8599;47.852;12.070;2023-02-05T04:01:05;0.90;99.90
16966;DHT22;8599;47.852;12.070;2023-02-05T04:03:33;0.90;99.90
16966;DHT22;8599;47.852;12.070;2023-02-05T04:06:00;0.90;99.90
16966;DHT22;8599;47.852;12.070;2023-02-05T04:08:26;0.90;99.90
16966;DHT22;8599;47.852;12.070;2023-02-05T04:10:53;0.90;99.90
16966;DHT22;8599;47.852;12.070;2023-02-05T04:13:20;0.80;99.90
16966;DHT22;8599;47.852;12.070;2023-02-05T04:15:47;0.70;99.90
16966;DHT22;8599;47.852;12.070;2023-02-05T04:18:16;0.70;99.90
16966;DHT22;8599;47.852;12.070;2023-02-05T04:20:43;0.70;99.90
16966;DHT22;8599;47.852;12.070;2023-02-05T04:23:10;0.60;99.90
16966;DHT22;8599;47.852;12.070;2023-02-05T04:25:38;0.50;99.90
16966;DHT22;8599;47.852;12.070;2023-02-05T04:28:05;0.40;99.90
16966;DHT22;8599;47.852;12.070;2023-02-05T04:30:32;0.40;99.90
16966;DHT22;8599;47.852;12.070;2023-02-05T04:32:59;0.40;99.90
16966;DHT22;8599;47.852;12.070;2023-02-05T04:35:27;0.40;99.90
16966;DHT22;8599;47.852;12.070;2023-02-05T04:37:54;0.30;99.90
16966;DHT22;8599;47.852;12.070;2023-02-05T04:40:21;0.30;99.90
16966;DHT22;8599;47.852;12.070;2023-02-05T04:42:48;0.20;99.90
16966;DHT22;8599;47.852;12.070;2023-02-05T04:45:15;0.20;99.90
16966;DHT22;8599;47.852;12.070;2023-02-05T04:47:41;0.10;99.90
16966;DHT22;8599;47.852;12.070;2023-02-05T04:50:09;-0.10;99.90
16966;DHT22;8599;47.852;12.070;2023-02-05T04:52:37;0.00;99.90
16966;DHT22;8599;47.852;12.070;2023-02-05T04:55:04;0.00;99.90
16966;DHT22;8599;47.852;12.070;2023-02-05T04:57:31;0.00;99.90
16966;DHT22;8599;47.852;12.070;2023-02-05T04:59:58;0.10;99.90
16966;DHT22;8599;47.852;12.070;2023-02-05T05:02:25;0.20;99.90
16966;DHT22;8599;47.852;12.070;2023-02-05T05:04:52;0.20;99.90
16966;DHT22;8599;47.852;12.070;2023-02-05T05:07:18;0.20;99.90
16966;DHT22;8599;47.852;12.070;2023-02-05T05:09:46;0.10;99.90
16966;DHT22;8599;47.852;12.070;2023-02-05T05:12:13;0.00;99.90
16966;DHT22;8599;47.852;12.070;2023-02-05T05:14:40;-0.20;99.90
16966;DHT22;8599;47.852;12.070;2023-02-05T05:17:07;-0.20;99.90
16966;DHT22;8599;47.852;12.070;2023-02-05T05:19:34;-0.20;99.90
16966;DHT22;8599;47.852;12.070;2023-02-05T05:22:01;-0.10;99.90
16966;DHT22;8599;47.852;12.070;2023-02-05T05:24:28;-0.10;99.90
16966;DHT22;8599;47.852;12.070;2023-02-05T05:26:56;0.00;99.90
16966;DHT22;8599;47.852;12.070;2023-02-05T05:29:23;0.00;99.90
16966;DHT22;8599;47.852;12.070;2023-02-05T05:31:51;0.10;99.90
16966;DHT22;8599;47.852;12.070;2023-02-05T05:34:18;0.00;99.90
16966;DHT22;8599;47.852;12.070;2023-02-05T05:36:45;0.10;99.90
16966;DHT22;8599;47.852;12.070;2023-02-05T05:39:12;0.10;99.90
16966;DHT22;8599;47.852;12.070;2023-02-05T05:41:58;0.10;99.90
16966;DHT22;8599;47.852;12.070;2023-02-05T05:44:43;0.20;99.90
16966;DHT22;8599;47.852;12.070;2023-02-05T05:47:14;0.20;99.90
16966;DHT22;8599;47.852;12.070;2023-02-05T05:49:41;0.30;99.90
16966;DHT22;8599;47.852;12.070;2023-02-05T05:52:08;0.20;99.90
16966;DHT22;8599;47.852;12.070;2023-02-05T05:54:35;0.20;99.90
16966;DHT22;8599;47.852;12.070;2023-02-05T05:57:03;0.20;99.90
16966;DHT22;8599;47.852;12.070;2023-02-05T05:59:30;0.20;99.90
16966;DHT22;8599;47.852;12.070;2023-02-05T06:01:57;0.10;99.90
16966;DHT22;8599;47.852;12.070;2023-02-05T06:04:23;0.20;99.90
16966;DHT22;8599;47.852;12.070;2023-02-05T06:06:50;0.30;99.90
16966;DHT22;8599;47.852;12.070;2023-02-05T06:09:18;0.10;99.90
16966;DHT22;8599;47.852;12.070;2023-02-05T06:11:46;0.00;99.90
16966;DHT22;8599;47.852;12.070;2023-02-05T06:14:14;0.10;99.90
16966;DHT22;8599;47.852;12.070;2023-02-05T06:16:41;0.10;99.90
16966;DHT22;8599;47.852;12.070;2023-02-05T06:19:08;0.00;99.90
16966;DHT22;8599;47.852;12.070;2023-02-05T06:21:35;0.10;99.90
16966;DHT22;8599;47.852;12.070;2023-02-05T06:24:02;0.10;99.90
16966;DHT22;8599;47.852;12.070;2023-02-05T06:26:28;0.00;99.90
16966;DHT22;8599;47.852;12.070;2023-02-05T06:28:55;0.00;99.90
16966;DHT22;8599;47.852;12.070;2023-02-05T06:31:28;0.10;99.90
16966;DHT22;8599;47.852;12.070;2023-02-05T06:33:55;0.20;99.90
16966;DHT22;8599;47.852;12.070;2023-02-05T06:36:22;0.20;99.90
16966;DHT22;8599;47.852;12.070;2023-02-05T06:38:49;0.20;99.90
16966;DHT22;8599;47.852;12.070;2023-02-05T06:41:16;0.20;99.90
16966;DHT22;8599;47.852;12.070;2023-02-05T06:43:43;0.20;99.90
16966;DHT22;8599;47.852;12.070;2023-02-05T06:46:10;0.30;99.90
16966;DHT22;8599;47.852;12.070;2023-02-05T06:48:38;0.40;99.90
16966;DHT22;8599;47.852;12.070;2023-02-05T06:51:05;0.30;99.90
16966;DHT22;8599;47.852;12.070;2023-02-05T06:53:32;0.30;99.90
16966;DHT22;8599;47.852;12.070;2023-02-05T06:56:00;0.30;99.90
16966;DHT22;8599;47.852;12.070;2023-02-05T06:58:26;0.30;99.90
16966;DHT22;8599;47.852;12.070;2023-02-05T07:00:53;0.20;99.90
16966;DHT22;8599;47.852;12.070;2023-02-05T07:03:20;0.20;99.90
16966;DHT22;8599;47.852;12.070;2023-02-05T07:05:48;0.20;99.90
16966;DHT22;8599;47.852;12.070;2023-02-05T07:08:15;0.10;99.90
16966;DHT22;8599;47.852;12.070;2023-02-05T07:10:42;0.20;99.90
16966;DHT22;8599;47.852;12.070;2023-02-05T07:13:09;0.20;99.90
16966;DHT22;8599;47.852;12.070;2023-02-05T07:15:36;0.20;99.90
16966;DHT22;8599;47.852;12.070;2023-02-05T07:18:04;0.30;99.90
16966;DHT22;8599;47.852;12.070;2023-02-05T07:20:30;0.40;99.90
16966;DHT22;8599;47.852;12.070;2023-02-05T07:22:59;0.40;99.90
16966;DHT22;8599;47.852;12.070;2023-02-05T07:25:26;0.40;99.90
16966;DHT22;8599;47.852;12.070;2023-02-05T07:27:53;0.40;99.90
16966;DHT22;8599;47.852;12.070;2023-02-05T07:30:20;0.40;99.90
16966;DHT22;8599;47.852;12.070;2023-02-05T07:32:48;0.40;99.90
16966;DHT22;8599;47.852;12.070;2023-02-05T07:35:15;0.40;99.90
16966;DHT22;8599;47.852;12.070;2023-02-05T07:37:42;0.30;99.90
16966;DHT22;8599;47.852;12.070;2023-02-05T07:40:11;0.40;99.90
16966;DHT22;8599;47.852;12.070;2023-02-05T07:42:38;0.40;99.90
16966;DHT22;8599;47.852;12.070;2023-02-05T07:45:05;0.30;99.90
16966;DHT22;8599;47.852;12.070;2023-02-05T07:47:32;0.40;99.90
16966;DHT22;8599;47.852;12.070;2023-02-05T07:49:59;0.40;99.90
16966;DHT22;8599;47.852;12.070;2023-02-05T07:52:26;0.40;99.90
16966;DHT22;8599;47.852;12.070;2023-02-05T07:54:53;0.50;99.90
16966;DHT22;8599;47.852;12.070;2023-02-05T07:57:21;0.50;99.90
16966;DHT22;8599;47.852;12.070;2023-02-05T07:59:48;0.50;99.90
16966;DHT22;8599;47.852;12.070;2023-02-05T08:02:14;0.50;99.90
16966;DHT22;8599;47.852;12.070;2023-02-05T08:04:41;0.60;99.90
16966;DHT22;8599;47.852;12.070;2023-02-05T08:07:09;0.70;99.90
16966;DHT22;8599;47.852;12.070;2023-02-05T08:09:37;0.70;99.90
16966;DHT22;8599;47.852;12.070;2023-02-05T08:12:04;0.80;99.90
16966;DHT22;8599;47.852;12.070;2023-02-05T08:14:33;0.80;99.90
16966;DHT22;8599;47.852;12.070;2023-02-05T08:17:01;0.90;99.90
16966;DHT22;8599;47.852;12.070;2023-02-05T08:19:27;1.00;99.90
16966;DHT22;8599;47.852;12.070;2023-02-05T08:21:54;1.00;99.90
16966;DHT22;8599;47.852;12.070;2023-02-05T08:24:21;1.00;99.90
16966;DHT22;8599;47.852;12.070;2023-02-05T08:26:48;1.10;99.90
16966;DHT22;8599;47.852;12.070;2023-02-05T08:29:14;1.10;99.90
16966;DHT22;8599;47.852;12.070;2023-02-05T08:31:43;1.20;99.90
16966;DHT22;8599;47.852;12.070;2023-02-05T08:34:09;1.30;99.90
16966;DHT22;8599;47.852;12.070;2023-02-05T08:36:36;1.40;99.90
16966;DHT22;8599;47.852;12.070;2023-02-05T08:39:03;1.40;99.90
16966;DHT22;8599;47.852;12.070;2023-02-05T08:41:30;1.40;99.90
16966;DHT22;8599;47.852;12.070;2023-02-05T08:43:57;1.50;99.90
16966;DHT22;8599;47.852;12.070;2023-02-05T08:46:23;1.50;99.90
16966;DHT22;8599;47.852;12.070;2023-02-05T08:48:52;1.60;99.90
16966;DHT22;8599;47.852;12.070;2023-02-05T08:51:19;1.60;99.90
16966;DHT22;8599;47.852;12.070;2023-02-05T08:53:47;1.70;99.90
16966;DHT22;8599;47.852;12.070;2023-02-05T08:56:14;1.60;99.90
16966;DHT22;8599;47.852;12.070;2023-02-05T08:58:42;1.70;99.90
16966;DHT22;8599;47.852;12.070;2023-02-05T09:01:11;1.70;99.90
16966;DHT22;8599;47.852;12.070;2023-02-05T09:03:38;1.80;99.90
16966;DHT22;8599;47.852;12.070;2023-02-05T09:06:08;1.80;99.90
16966;DHT22;8599;47.852;12.070;2023-02-05T09:08:36;1.80;99.90
16966;DHT22;8599;47.852;12.070;2023-02-05T09:11:03;1.90;99.90
16966;DHT22;8599;47.852;12.070;2023-02-05T09:13:30;2.00;99.90
16966;DHT22;8599;47.852;12.070;2023-02-05T09:15:56;2.00;99.90
16966;DHT22;8599;47.852;12.070;2023-02-05T09:18:24;2.10;99.90
16966;DHT22;8599;47.852;12.070;2023-02-05T09:20:51;2.20;99.90
16966;DHT22;8599;47.852;12.070;2023-02-05T09:23:20;2.20;99.90
16966;DHT22;8599;47.852;12.070;2023-02-05T09:25:47;2.20;99.90
16966;DHT22;8599;47.852;12.070;2023-02-05T09:28:14;2.10;99.90
16966;DHT22;8599;47.852;12.070;2023-02-05T09:30:43;2.20;99.90
16966;DHT22;8599;47.852;12.070;2023-02-05T09:33:10;2.30;99.90
16966;DHT22;8599;47.852;12.070;2023-02-05T09:35:37;2.30;99.90
16966;DHT22;8599;47.852;12.070;2023-02-05T09:38:04;2.40;99.90
16966;DHT22;8599;47.852;12.070;2023-02-05T09:40:37;2.50;99.90
16966;DHT22;8599;47.852;12.070;2023-02-05T09:43:19;2.40;99.90
16966;DHT22;8599;47.852;12.070;2023-02-05T09:45:55;2.40;99.90
16966;DHT22;8599;47.852;12.070;2023-02-05T09:48:45;2.50;99.90
16966;DHT22;8599;47.852;12.070;2023-02-05T09:51:16;2.60;99.90
16966;DHT22;8599;47.852;12.070;2023-02-05T09:53:47;2.60;99.90
16966;DHT22;8599;47.852;12.070;2023-02-05T09:56:18;2.70;99.90
16966;DHT22;8599;47.852;12.070;2023-02-05T09:58:48;2.60;99.90
16966;DHT22;8599;47.852;12.070;2023-02-05T10:01:21;2.60;99.90
16966;DHT22;8599;47.852;12.070;2023-02-05T10:03:50;2.50;99.90
16966;DHT22;8599;47.852;12.070;2023-02-05T10:06:46;2.40;99.90
16966;DHT22;8599;47.852;12.070;2023-02-05T10:12:32;2.50;99.90
16966;DHT22;8599;47.852;12.070;2023-02-05T10:15:12;2.50;99.90
16966;DHT22;8599;47.852;12.070;2023-02-05T10:17:50;2.60;99.90
16966;DHT22;8599;47.852;12.070;2023-02-05T10:20:38;2.70;99.90
16966;DHT22;8599;47.852;12.070;2023-02-05T10:23:14;2.80;99.90
16966;DHT22;8599;47.852;12.070;2023-02-05T10:25:47;2.80;99.90
16966;DHT22;8599;47.852;12.070;2023-02-05T10:31:14;2.80;99.90
16966;DHT22;8599;47.852;12.070;2023-02-05T10:33:47;2.80;99.90
16966;DHT22;8599;47.852;12.070;2023-02-05T10:36:15;2.80;99.90
16966;DHT22;8599;47.852;12.070;2023-02-05T10:38:48;2.90;99.90
16966;DHT22;8599;47.852;12.070;2023-02-05T10:41:21;2.90;99.90
16966;DHT22;8599;47.852;12.070;2023-02-05T10:44:02;2.80;99.90
16966;DHT22;8599;47.852;12.070;2023-02-05T10:46:33;2.80;99.90
16966;DHT22;8599;47.852;12.070;2023-02-05T10:49:05;2.80;99.90
16966;DHT22;8599;47.852;12.070;2023-02-05T10:51:39;2.80;99.90
16966;DHT22;8599;47.852;12.070;2023-02-05T10:54:14;2.90;99.90
16966;DHT22;8599;47.852;12.070;2023-02-05T10:56:43;3.00;99.90
16966;DHT22;8599;47.852;12.070;2023-02-05T10:59:19;3.20;99.90
16966;DHT22;8599;47.852;12.070;2023-02-05T11:01:47;3.40;99.90
16966;DHT22;8599;47.852;12.070;2023-02-05T11:04:17;3.50;99.90
16966;DHT22;8599;47.852;12.070;2023-02-05T11:06:47;3.60;99.90
16966;DHT22;8599;47.852;12.070;2023-02-05T11:09:33;3.60;99.90
16966;DHT22;8599;47.852;12.070;2023-02-05T11:12:01;3.70;99.90
16966;DHT22;8599;47.852;12.070;2023-02-05T11:14:33;3.60;99.90
16966;DHT22;8599;47.852;12.070;2023-02-05T11:17:07;3.70;99.90
16966;DHT22;8599;47.852;12.070;2023-02-05T11:19:35;4.00;99.90
16966;DHT22;8599;47.852;12.070;2023-02-05T11:22:04;4.00;99.90
16966;DHT22;8599;47.852;12.070;2023-02-05T11:24:32;4.10;99.90
16966;DHT22;8599;47.852;12.070;2023-02-05T11:27:26;4.00;99.90
16966;DHT22;8599;47.852;12.070;2023-02-05T11:29:55;4.10;99.90
16966;DHT22;8599;47.852;12.070;2023-02-05T11:32:32;4.20;99.90
16966;DHT22;8599;47.852;12.070;2023-02-05T11:35:17;4.20;99.90
16966;DHT22;8599;47.852;12.070;2023-02-05T11:37:44;4.20;99.90
16966;DHT22;8599;47.852;12.070;2023-02-05T11:40:20;4.30;99.90
16966;DHT22;8599;47.852;12.070;2023-02-05T11:43:01;4.40;99.90
16966;DHT22;8599;47.852;12.070;2023-02-05T11:45:31;4.30;99.90
16966;DHT22;8599;47.852;12.070;2023-02-05T11:48:01;4.40;99.90
16966;DHT22;8599;47.852;12.070;2023-02-05T11:50:29;4.60;99.90
16966;DHT22;8599;47.852;12.070;2023-02-05T11:53:06;4.80;99.90
16966;DHT22;8599;47.852;12.070;2023-02-05T11:55:34;4.90;99.90
16966;DHT22;8599;47.852;12.070;2023-02-05T11:58:03;4.90;99.90
16966;DHT22;8599;47.852;12.070;2023-02-05T12:00:32;5.00;99.90
16966;DHT22;8599;47.852;12.070;2023-02-05T12:03:05;5.10;99.90
16966;DHT22;8599;47.852;12.070;2023-02-05T12:05:36;5.10;99.90
16966;DHT22;8599;47.852;12.070;2023-02-05T12:08:11;5.10;99.90
16966;DHT22;8599;47.852;12.070;2023-02-05T12:10:43;5.30;99.90
16966;DHT22;8599;47.852;12.070;2023-02-05T12:13:17;5.40;99.90
16966;DHT22;8599;47.852;12.070;2023-02-05T12:15:56;5.60;99.90
16966;DHT22;8599;47.852;12.070;2023-02-05T12:18:36;5.70;99.90
16966;DHT22;8599;47.852;12.070;2023-02-05T12:21:15;5.60;99.90
16966;DHT22;8599;47.852;12.070;2023-02-05T12:23:58;5.70;99.90
16966;DHT22;8599;47.852;12.070;2023-02-05T12:26:30;5.70;99.90
16966;DHT22;8599;47.852;12.070;2023-02-05T12:29:21;5.90;99.90
16966;DHT22;8599;47.852;12.070;2023-02-05T12:32:00;5.90;99.90
16966;DHT22;8599;47.852;12.070;2023-02-05T12:34:39;5.70;99.90
16966;DHT22;8599;47.852;12.070;2023-02-05T12:37:25;5.60;99.90
16966;DHT22;8599;47.852;12.070;2023-02-05T12:40:00;5.40;99.90
16966;DHT22;8599;47.852;12.070;2023-02-05T12:42:32;5.40;99.90
16966;DHT22;8599;47.852;12.070;2023-02-05T12:45:23;5.50;99.90
16966;DHT22;8599;47.852;12.070;2023-02-05T12:48:14;5.40;99.90
16966;DHT22;8599;47.852;12.070;2023-02-05T12:50:56;5.20;99.90
16966;DHT22;8599;47.852;12.070;2023-02-05T12:53:39;5.10;99.90
16966;DHT22;8599;47.852;12.070;2023-02-05T12:56:27;5.00;99.90
16966;DHT22;8599;47.852;12.070;2023-02-05T12:58:59;5.00;99.90
16966;DHT22;8599;47.852;12.070;2023-02-05T13:01:36;5.00;99.90
16966;DHT22;8599;47.852;12.070;2023-02-05T13:04:18;5.00;99.90
16966;DHT22;8599;47.852;12.070;2023-02-05T13:06:50;5.00;99.90
16966;DHT22;8599;47.852;12.070;2023-02-05T13:09:21;5.00;99.90
16966;DHT22;8599;47.852;12.070;2023-02-05T13:11:53;5.10;99.90
16966;DHT22;8599;47.852;12.070;2023-02-05T13:14:25;5.00;99.90
16966;DHT22;8599;47.852;12.070;2023-02-05T13:16:59;4.90;99.90
16966;DHT22;8599;47.852;12.070;2023-02-05T13:19:30;4.90;99.90
16966;DHT22;8599;47.852;12.070;2023-02-05T13:22:03;5.00;99.90
16966;DHT22;8599;47.852;12.070;2023-02-05T13:24:53;5.00;99.90
16966;DHT22;8599;47.852;12.070;2023-02-05T13:27:41;5.00;99.90
16966;DHT22;8599;47.852;12.070;2023-02-05T13:30:29;5.00;99.90
16966;DHT22;8599;47.852;12.070;2023-02-05T13:33:00;4.90;99.90
16966;DHT22;8599;47.852;12.070;2023-02-05T13:35:39;4.90;99.90
16966;DHT22;8599;47.852;12.070;2023-02-05T13:38:31;4.80;99.90
16966;DHT22;8599;47.852;12.070;2023-02-05T13:41:34;4.80;99.90
16966;DHT22;8599;47.852;12.070;2023-02-05T13:44:33;4.70;99.90
16966;DHT22;8599;47.852;12.070;2023-02-05T13:50:27;4.60;99.90
16966;DHT22;8599;47.852;12.070;2023-02-05T13:58:51;4.60;99.90
16966;DHT22;8599;47.852;12.070;2023-02-05T14:01:22;4.60;99.90
16966;DHT22;8599;47.852;12.070;2023-02-05T14:03:56;4.70;99.90
16966;DHT22;8599;47.852;12.070;2023-02-05T14:06:27;4.60;99.90
16966;DHT22;8599;47.852;12.070;2023-02-05T14:09:00;4.70;99.90
16966;DHT22;8599;47.852;12.070;2023-02-05T14:11:28;4.60;99.90
16966;DHT22;8599;47.852;12.070;2023-02-05T14:14:29;4.80;99.90
16966;DHT22;8599;47.852;12.070;2023-02-05T14:16:57;4.70;99.90
16966;DHT22;8599;47.852;12.070;2023-02-05T14:19:48;4.70;99.90
16966;DHT22;8599;47.852;12.070;2023-02-05T14:22:34;4.70;99.90
16966;DHT22;8599;47.852;12.070;2023-02-05T14:25:03;4.90;99.90
16966;DHT22;8599;47.852;12.070;2023-02-05T14:27:48;4.80;99.90
16966;DHT22;8599;47.852;12.070;2023-02-05T14:30:48;4.70;99.90
16966;DHT22;8599;47.852;12.070;2023-02-05T14:33:39;4.70;99.90
16966;DHT22;8599;47.852;12.070;2023-02-05T14:36:31;4.60;99.90
16966;DHT22;8599;47.852;12.070;2023-02-05T14:39:05;4.60;99.90
16966;DHT22;8599;47.852;12.070;2023-02-05T14:41:47;4.60;99.90
16966;DHT22;8599;47.852;12.070;2023-02-05T14:44:24;4.60;99.90
16966;DHT22;8599;47.852;12.070;2023-02-05T14:47:04;4.60;99.90
16966;DHT22;8599;47.852;12.070;2023-02-05T14:49:38;4.60;99.90
16966;DHT22;8599;47.852;12.070;2023-02-05T14:52:26;4.60;99.90
16966;DHT22;8599;47.852;12.070;2023-02-05T14:54:57;4.50;99.90
16966;DHT22;8599;47.852;12.070;2023-02-05T14:57:32;4.60;99.90
16966;DHT22;8599;47.852;12.070;2023-02-05T15:00:04;4.60;99.90
16966;DHT22;8599;47.852;12.070;2023-02-05T15:02:52;4.50;99.90
16966;DHT22;8599;47.852;12.070;2023-02-05T15:05:26;4.50;99.90
16966;DHT22;8599;47.852;12.070;2023-02-05T15:08:07;4.50;99.90
16966;DHT22;8599;47.852;12.070;2023-02-05T15:10:41;4.50;99.90
16966;DHT22;8599;47.852;12.070;2023-02-05T15:13:12;4.50;99.90
16966;DHT22;8599;47.852;12.070;2023-02-05T15:15:39;4.50;99.90
16966;DHT22;8599;47.852;12.070;2023-02-05T15:18:20;4.40;99.90
16966;DHT22;8599;47.852;12.070;2023-02-05T15:20:50;4.50;99.90
16966;DHT22;8599;47.852;12.070;2023-02-05T15:23:33;4.40;99.90
16966;DHT22;8599;47.852;12.070;2023-02-05T15:26:03;4.40;99.90
16966;DHT22;8599;47.852;12.070;2023-02-05T15:28:35;4.30;99.90
16966;DHT22;8599;47.852;12.070;2023-02-05T15:31:16;4.30;99.90
16966;DHT22;8599;47.852;12.070;2023-02-05T15:33:50;4.30;99.90
16966;DHT22;8599;47.852;12.070;2023-02-05T15:36:23;4.20;99.90
16966;DHT22;8599;47.852;12.070;2023-02-05T15:39:02;4.10;99.90
16966;DHT22;8599;47.852;12.070;2023-02-05T15:41:31;3.90;99.90
16966;DHT22;8599;47.852;12.070;2023-02-05T15:44:03;3.90;99.90
16966;DHT22;8599;47.852;12.070;2023-02-05T15:46:31;3.90;99.90
16966;DHT22;8599;47.852;12.070;2023-02-05T15:48:59;3.80;99.90
16966;DHT22;8599;47.852;12.070;2023-02-05T15:51:29;3.80;99.90
16966;DHT22;8599;47.852;12.070;2023-02-05T15:53:59;3.80;99.90
16966;DHT22;8599;47.852;12.070;2023-02-05T15:56:29;3.70;99.90
16966;DHT22;8599;47.852;12.070;2023-02-05T15:58:59;3.70;99.90
16966;DHT22;8599;47.852;12.070;2023-02-05T16:01:30;3.70;99.90
16966;DHT22;8599;47.852;12.070;2023-02-05T16:03:58;3.60;99.90
16966;DHT22;8599;47.852;12.070;2023-02-05T16:06:26;3.50;99.90
16966;DHT22;8599;47.852;12.070;2023-02-05T16:08:54;3.30;99.90
16966;DHT22;8599;47.852;12.070;2023-02-05T16:11:26;3.10;99.90
16966;DHT22;8599;47.852;12.070;2023-02-05T16:14:04;3.20;99.90
16966;DHT22;8599;47.852;12.070;2023-02-05T16:16:35;3.00;99.90
16966;DHT22;8599;47.852;12.070;2023-02-05T16:19:04;3.00;99.90
16966;DHT22;8599;47.852;12.070;2023-02-05T16:21:37;3.00;99.90
16966;DHT22;8599;47.852;12.070;2023-02-05T16:24:12;2.90;99.90
16966;DHT22;8599;47.852;12.070;2023-02-05T16:26:43;2.90;99.90
16966;DHT22;8599;47.852;12.070;2023-02-05T16:29:16;2.80;99.90